createdAt,value
2019-03-15T00:02:07.001Z,7.53
2019-03-15T00:04:35.533Z,6.87
2019-03-15T00:07:04.090Z,6.27
2019-03-15T00:09:32.610Z,10.23
2019-03-15T00:12:01.629Z,9.53
2019-03-15T00:14:30.201Z,7.40
2019-03-15T00:17:01.843Z,7.37
2019-03-15T00:19:30.307Z,8.63
2019-03-15T00:21:58.785Z,6.00
2019-03-15T00:24:27.467Z,7.97
2019-03-15T00:26:55.980Z,5.73
2019-03-15T00:29:24.426Z,6.73
2019-03-15T00:31:52.926Z,3.93
2019-03-15T00:34:21.444Z,5.10
2019-03-15T00:36:49.941Z,6.30
2019-03-15T00:39:18.538Z,6.90
2019-03-15T00:41:47.063Z,7.23
2019-03-15T00:44:15.613Z,8.40
2019-03-15T00:46:44.248Z,6.23
2019-03-15T00:49:12.855Z,6.47
2019-03-15T00:51:41.312Z,6.67
2019-03-15T00:54:09.751Z,8.97
2019-03-15T00:56:38.413Z,5.80
2019-03-15T00:59:06.904Z,5.83
2019-03-15T01:01:35.316Z,5.60
2019-03-15T01:04:05.078Z,6.23
2019-03-15T01:06:33.575Z,5.67
2019-03-15T01:09:02.060Z,7.77
2019-03-15T01:11:30.607Z,5.27
2019-03-15T01:13:59.025Z,3.87
2019-03-15T01:16:27.582Z,4.97
2019-03-15T01:18:56.192Z,4.90
2019-03-15T01:21:24.790Z,3.47
2019-03-15T01:23:53.455Z,7.03
2019-03-15T01:26:22.088Z,2.83
2019-03-15T01:28:50.534Z,5.07
2019-03-15T01:31:19.101Z,4.73
2019-03-15T01:33:47.495Z,7.33
2019-03-15T01:36:16.681Z,4.07
2019-03-15T01:38:45.268Z,4.30
2019-03-15T01:41:13.729Z,3.53
2019-03-15T01:43:42.282Z,3.37
2019-03-15T01:46:10.804Z,4.23
2019-03-15T01:48:39.301Z,6.97
2019-03-15T01:51:07.815Z,4.50
2019-03-15T01:53:36.558Z,6.43
2019-03-15T01:56:05.046Z,4.83
2019-03-15T01:58:33.541Z,4.37
2019-03-15T02:01:02.102Z,5.93
2019-03-15T02:03:30.534Z,5.13
2019-03-15T02:05:58.967Z,6.83
2019-03-15T02:08:27.445Z,2.83
2019-03-15T02:10:55.945Z,3.97
2019-03-15T02:13:24.407Z,5.27
2019-03-15T02:15:53.710Z,4.10
2019-03-15T02:18:22.313Z,4.90
2019-03-15T02:20:50.914Z,5.67
2019-03-15T02:23:19.373Z,3.60
2019-03-15T02:25:47.904Z,5.43
2019-03-15T02:28:16.390Z,7.63
2019-03-15T02:30:45.244Z,4.37
2019-03-15T02:33:13.813Z,5.93
2019-03-15T02:35:42.291Z,9.47
2019-03-15T02:38:10.869Z,4.67
2019-03-15T02:40:39.461Z,7.90
2019-03-15T02:43:07.959Z,6.50
2019-03-15T02:45:36.482Z,4.37
2019-03-15T02:48:04.967Z,4.63
2019-03-15T02:50:33.452Z,7.57
2019-03-15T02:53:05.277Z,8.57
2019-03-15T02:55:33.741Z,4.00
2019-03-15T02:58:02.447Z,6.83
2019-03-15T03:00:31.002Z,6.03
2019-03-15T03:02:59.451Z,3.70
2019-03-15T03:05:27.903Z,8.87
2019-03-15T03:07:56.449Z,6.43
2019-03-15T03:10:25.006Z,4.17
2019-03-15T03:12:53.604Z,5.73
2019-03-15T03:15:22.211Z,7.53
2019-03-15T03:17:50.662Z,4.47
2019-03-15T03:20:19.137Z,7.50
2019-03-15T03:22:47.719Z,8.23
2019-03-15T03:25:17.260Z,4.73
2019-03-15T03:27:46.060Z,4.40
2019-03-15T03:30:16.655Z,4.90
2019-03-15T03:32:45.153Z,4.23
2019-03-15T03:35:13.676Z,5.47
2019-03-15T03:37:42.270Z,6.97
2019-03-15T03:40:10.886Z,5.43
2019-03-15T03:42:39.354Z,4.77
2019-03-15T03:45:08.086Z,8.43
2019-03-15T03:47:36.510Z,4.70
2019-03-15T03:50:08.208Z,4.30
2019-03-15T03:52:36.655Z,7.50
2019-03-15T03:55:05.490Z,5.97
2019-03-15T03:57:34.178Z,5.90
2019-03-15T04:00:03.047Z,3.97
2019-03-15T04:02:32.988Z,9.37
2019-03-15T04:05:01.672Z,4.80
2019-03-15T04:07:30.317Z,6.30
2019-03-15T04:09:58.904Z,6.17
2019-03-15T04:12:27.717Z,6.37
2019-03-15T04:14:56.343Z,5.30
2019-03-15T04:17:24.872Z,6.57
2019-03-15T04:19:53.460Z,6.57
2019-03-15T04:22:21.935Z,8.37
2019-03-15T04:24:50.415Z,7.67
2019-03-15T04:27:18.998Z,6.17
2019-03-15T04:29:47.976Z,4.97
2019-03-15T04:32:16.742Z,7.87
2019-03-15T04:34:45.485Z,8.40
2019-03-15T04:37:14.085Z,6.07
2019-03-15T04:39:43.884Z,8.57
2019-03-15T04:42:12.329Z,5.93
2019-03-15T04:44:41.007Z,7.20
2019-03-15T04:47:09.847Z,6.00
2019-03-15T04:49:38.329Z,4.90
2019-03-15T04:52:06.790Z,6.63
2019-03-15T04:54:35.354Z,7.10
2019-03-15T04:57:03.988Z,10.03
2019-03-15T04:59:32.859Z,6.80
2019-03-15T05:02:01.361Z,5.37
2019-03-15T05:04:29.993Z,5.40
2019-03-15T05:06:58.670Z,6.80
2019-03-15T05:09:27.255Z,5.67
2019-03-15T05:11:55.706Z,5.57
2019-03-15T05:14:25.673Z,4.47
2019-03-15T05:16:54.197Z,5.50
2019-03-15T05:19:23.736Z,11.50
2019-03-15T05:21:52.264Z,6.27
2019-03-15T05:24:20.877Z,7.77
2019-03-15T05:26:49.327Z,7.97
2019-03-15T05:29:17.883Z,7.73
2019-03-15T05:31:46.475Z,7.43
2019-03-15T05:34:15.013Z,8.87
2019-03-15T05:36:43.491Z,7.57
2019-03-15T05:39:12.042Z,8.23
2019-03-15T05:41:40.623Z,5.77
2019-03-15T05:44:09.123Z,12.20
2019-03-15T05:46:37.732Z,7.90
2019-03-15T05:49:06.312Z,9.10
2019-03-15T05:51:34.889Z,10.47
2019-03-15T05:54:03.673Z,11.07
2019-03-15T05:56:32.345Z,8.37
2019-03-15T05:59:00.945Z,8.87
2019-03-15T06:01:29.475Z,9.87
2019-03-15T06:03:57.969Z,9.93
2019-03-15T06:06:26.527Z,13.93
2019-03-15T06:08:55.138Z,8.93
2019-03-15T06:11:23.766Z,10.87
2019-03-15T06:13:52.434Z,9.47
2019-03-15T06:16:21.054Z,7.00
2019-03-15T06:18:49.834Z,7.93
2019-03-15T06:21:18.379Z,10.60
2019-03-15T06:23:47.030Z,8.63
2019-03-15T06:26:15.738Z,14.00
2019-03-15T06:28:44.494Z,11.27
2019-03-15T06:31:13.188Z,7.43
2019-03-15T06:33:42.810Z,6.40
2019-03-15T06:36:11.432Z,10.80
2019-03-15T06:38:39.989Z,6.90
2019-03-15T06:41:08.606Z,7.80
2019-03-15T06:43:37.198Z,6.20
2019-03-15T06:46:05.797Z,6.33
2019-03-15T06:48:34.275Z,6.87
2019-03-15T06:51:02.914Z,9.30
2019-03-15T06:53:31.421Z,6.23
2019-03-15T06:55:59.989Z,13.93
2019-03-15T06:58:28.550Z,10.40
2019-03-15T07:00:57.438Z,5.70
2019-03-15T07:03:26.354Z,8.13
2019-03-15T07:05:54.810Z,6.13
2019-03-15T07:08:23.300Z,8.07
2019-03-15T07:10:52.273Z,9.43
2019-03-15T07:13:20.964Z,6.00
2019-03-15T07:15:49.645Z,7.47
2019-03-15T07:18:19.499Z,5.10
2019-03-15T07:20:48.116Z,5.30
2019-03-15T07:23:16.678Z,5.00
2019-03-15T07:25:45.172Z,6.73
2019-03-15T07:28:13.738Z,5.90
2019-03-15T07:30:43.328Z,6.70
2019-03-15T07:33:11.888Z,7.47
2019-03-15T07:35:40.444Z,5.47
2019-03-15T07:38:08.910Z,5.30
2019-03-15T07:40:37.539Z,6.10
2019-03-15T07:43:06.214Z,6.27
2019-03-15T07:45:34.816Z,8.40
2019-03-15T07:48:03.419Z,7.37
2019-03-15T07:50:32.102Z,6.70
2019-03-15T07:53:00.692Z,5.17
2019-03-15T07:55:29.304Z,7.33
2019-03-15T07:57:57.850Z,6.80
2019-03-15T08:00:26.773Z,9.00
2019-03-15T08:02:55.383Z,7.50
2019-03-15T08:05:23.851Z,9.43
2019-03-15T08:07:53.083Z,6.13
2019-03-15T08:10:21.765Z,7.70
2019-03-15T08:12:50.397Z,9.30
2019-03-15T08:15:19.075Z,7.37
2019-03-15T08:17:47.688Z,5.40
2019-03-15T08:20:16.246Z,3.63
2019-03-15T08:22:44.794Z,7.00
2019-03-15T08:25:13.449Z,5.17
2019-03-15T08:27:42.195Z,7.20
2019-03-15T08:30:11.418Z,4.90
2019-03-15T08:32:43.467Z,6.73
2019-03-15T08:35:10.230Z,6.77
2019-03-15T08:37:38.822Z,5.13
2019-03-15T08:40:07.959Z,9.60
2019-03-15T08:42:36.498Z,4.33
2019-03-15T08:45:05.842Z,4.20
2019-03-15T08:47:34.466Z,5.43
2019-03-15T08:50:04.330Z,5.27
2019-03-15T08:52:32.995Z,2.73
2019-03-15T08:55:05.571Z,2.80
2019-03-15T08:57:31.950Z,3.10
2019-03-15T09:00:00.548Z,2.53
2019-03-15T09:02:29.182Z,1.90
2019-03-15T09:04:57.890Z,3.00
2019-03-15T09:07:26.461Z,3.57
2019-03-15T09:09:55.075Z,3.97
2019-03-15T09:12:23.676Z,3.80
2019-03-15T09:14:52.233Z,2.20
2019-03-15T09:17:20.756Z,1.73
2019-03-15T09:19:49.214Z,1.90
2019-03-15T09:22:17.744Z,3.07
2019-03-15T09:24:46.310Z,2.13
2019-03-15T09:27:14.787Z,3.33
2019-03-15T09:29:43.342Z,1.83
2019-03-15T09:32:11.859Z,3.87
2019-03-15T09:34:40.449Z,3.53
2019-03-15T09:37:09.970Z,1.93
2019-03-15T09:39:38.529Z,4.50
2019-03-15T09:42:07.073Z,2.00
2019-03-15T09:44:37.510Z,5.20
2019-03-15T09:47:05.838Z,2.23
2019-03-15T09:49:34.354Z,3.87
2019-03-15T09:52:02.974Z,4.23
2019-03-15T09:54:31.678Z,4.27
2019-03-15T09:57:00.204Z,5.00
2019-03-15T09:59:28.922Z,4.33
2019-03-15T10:01:57.679Z,3.80
2019-03-15T10:04:26.262Z,2.87
2019-03-15T10:06:54.746Z,4.17
2019-03-15T10:09:23.335Z,4.50
2019-03-15T10:11:51.793Z,3.13
2019-03-15T10:14:20.401Z,2.83
2019-03-15T10:16:48.922Z,5.30
2019-03-15T10:19:17.588Z,3.03
2019-03-15T10:21:46.197Z,5.40
2019-03-15T10:24:15.817Z,3.10
2019-03-15T10:26:44.608Z,7.80
2019-03-15T10:29:15.664Z,3.07
2019-03-15T10:31:43.285Z,3.40
2019-03-15T10:34:11.954Z,3.73
2019-03-15T10:36:40.702Z,4.93
2019-03-15T10:39:09.253Z,5.57
2019-03-15T10:41:38.329Z,5.73
2019-03-15T10:44:06.905Z,5.50
2019-03-15T10:46:35.435Z,2.27
2019-03-15T10:49:03.985Z,2.13
2019-03-15T10:51:32.683Z,1.27
2019-03-15T10:54:01.540Z,0.97
2019-03-15T10:56:30.061Z,0.50
2019-03-15T10:58:58.517Z,0.60
2019-03-15T11:01:28.148Z,0.40
2019-03-15T11:03:56.938Z,2.33
2019-03-15T11:06:25.651Z,3.43
2019-03-15T11:08:54.294Z,0.40
2019-03-15T11:11:23.030Z,0.60
2019-03-15T11:13:55.511Z,0.40
2019-03-15T11:16:23.042Z,0.60
2019-03-15T11:18:51.826Z,1.13
2019-03-15T11:21:20.582Z,0.70
2019-03-15T11:23:49.244Z,0.47
2019-03-15T11:26:17.998Z,0.40
2019-03-15T11:28:46.556Z,0.50
2019-03-15T11:31:15.338Z,0.77
2019-03-15T11:33:47.286Z,0.53
2019-03-15T11:36:14.821Z,0.83
2019-03-15T11:38:43.915Z,1.17
2019-03-15T11:41:12.988Z,0.70
2019-03-15T11:43:41.776Z,0.60
2019-03-15T11:46:10.399Z,1.33
2019-03-15T11:48:39.099Z,2.13
2019-03-15T11:51:07.882Z,0.70
2019-03-15T11:53:36.717Z,1.07
2019-03-15T11:56:05.481Z,1.00
2019-03-15T11:58:34.206Z,0.97
2019-03-15T12:01:03.020Z,1.30
2019-03-15T12:03:31.742Z,1.37
2019-03-15T12:06:00.381Z,1.97
2019-03-15T12:08:29.223Z,1.07
2019-03-15T12:10:58.014Z,2.10
2019-03-15T12:13:28.234Z,1.77
2019-03-15T12:15:57.117Z,2.50
2019-03-15T12:18:25.740Z,2.30
2019-03-15T12:20:54.502Z,2.30
2019-03-15T12:23:23.233Z,2.37
2019-03-15T12:25:52.039Z,2.47
2019-03-15T12:28:20.661Z,2.53
2019-03-15T12:30:49.468Z,2.77
2019-03-15T12:33:18.293Z,3.10
2019-03-15T12:35:47.168Z,3.13
2019-03-15T12:38:15.958Z,4.70
2019-03-15T12:40:47.669Z,3.00
2019-03-15T12:43:16.770Z,3.77
2019-03-15T12:45:45.527Z,2.70
2019-03-15T12:48:14.165Z,2.23
2019-03-15T12:50:42.824Z,2.77
2019-03-15T12:53:11.801Z,3.53
2019-03-15T12:55:40.636Z,2.40
2019-03-15T12:58:10.046Z,2.20
2019-03-15T13:00:38.712Z,2.50
2019-03-15T13:03:08.679Z,2.47
2019-03-15T13:05:37.681Z,3.20
2019-03-15T13:08:06.695Z,3.30
2019-03-15T13:10:35.498Z,3.17
2019-03-15T13:13:04.169Z,3.07
2019-03-15T13:15:32.958Z,3.30
2019-03-15T13:18:01.858Z,3.03
2019-03-15T13:20:30.623Z,3.00
2019-03-15T13:22:59.407Z,2.80
2019-03-15T13:25:28.323Z,2.60
2019-03-15T13:27:57.010Z,2.97
2019-03-15T13:30:25.887Z,3.27
2019-03-15T13:32:54.701Z,2.60
2019-03-15T13:35:23.449Z,3.40
2019-03-15T13:37:52.312Z,2.80
2019-03-15T13:40:20.979Z,3.33
2019-03-15T13:42:49.720Z,2.73
2019-03-15T13:45:18.778Z,3.07
2019-03-15T13:47:47.352Z,2.77
2019-03-15T13:50:15.951Z,3.00
2019-03-15T13:52:44.481Z,2.83
2019-03-15T13:55:13.094Z,2.73
2019-03-15T13:57:41.597Z,2.27
2019-03-15T14:00:10.670Z,2.83
2019-03-15T14:02:40.558Z,1.80
2019-03-15T14:05:09.239Z,1.97
2019-03-15T14:07:37.865Z,2.00
2019-03-15T14:10:07.042Z,2.03
2019-03-15T14:12:35.656Z,1.40
2019-03-15T14:15:04.490Z,1.70
2019-03-15T14:17:33.037Z,2.30
2019-03-15T14:20:01.604Z,1.30
2019-03-15T14:22:30.042Z,2.23
2019-03-15T14:24:58.466Z,1.10
2019-03-15T14:27:36.961Z,0.80
2019-03-15T14:29:57.359Z,1.43
2019-03-15T14:32:25.821Z,0.77
2019-03-15T14:34:54.241Z,2.37
2019-03-15T14:37:22.826Z,0.70
2019-03-15T14:39:51.474Z,0.80
2019-03-15T14:42:20.313Z,1.17
2019-03-15T14:44:48.946Z,1.70
2019-03-15T14:47:17.563Z,0.87
2019-03-15T14:49:46.115Z,1.63
2019-03-15T14:52:14.740Z,0.50
2019-03-15T14:54:43.411Z,0.63
2019-03-15T14:57:11.960Z,0.60
2019-03-15T14:59:40.555Z,1.23
2019-03-15T15:02:09.121Z,0.67
2019-03-15T15:04:37.661Z,0.40
2019-03-15T15:07:06.173Z,0.70
2019-03-15T15:09:34.618Z,1.50
2019-03-15T15:12:03.162Z,0.63
2019-03-15T15:14:31.770Z,0.40
2019-03-15T15:17:00.456Z,0.43
2019-03-15T15:19:29.121Z,0.57
2019-03-15T15:21:57.593Z,0.30
2019-03-15T15:24:26.017Z,1.50
2019-03-15T15:26:54.499Z,0.73
2019-03-15T15:29:22.955Z,0.53
2019-03-15T15:31:51.479Z,1.50
2019-03-15T15:34:20.173Z,0.30
2019-03-15T15:36:48.725Z,1.27
2019-03-15T15:39:17.226Z,2.47
2019-03-15T15:41:45.814Z,6.13
2019-03-15T15:44:14.474Z,0.30
2019-03-15T15:46:49.999Z,0.50
2019-03-15T15:49:18.611Z,0.57
2019-03-15T15:51:47.104Z,0.37
2019-03-15T15:54:15.522Z,0.50
2019-03-15T15:56:44.135Z,0.40
2019-03-15T15:59:12.662Z,0.60
2019-03-15T16:01:41.136Z,0.40
2019-03-15T16:04:09.577Z,0.40
2019-03-15T16:06:38.123Z,1.37
2019-03-15T16:09:07.278Z,0.30
2019-03-15T16:11:35.881Z,0.23
2019-03-15T16:14:04.463Z,0.30
2019-03-15T16:16:33.093Z,0.30
2019-03-15T16:19:01.675Z,0.20
2019-03-15T16:21:33.474Z,1.27
2019-03-15T16:24:02.142Z,1.37
2019-03-15T16:26:30.685Z,0.53
2019-03-15T16:28:59.462Z,0.80
2019-03-15T16:31:28.118Z,0.43
2019-03-15T16:33:59.362Z,1.03
2019-03-15T16:36:27.908Z,0.30
2019-03-15T16:38:56.460Z,1.53
2019-03-15T16:41:27.322Z,0.93
2019-03-15T16:43:56.015Z,0.83
2019-03-15T16:46:24.625Z,1.30
2019-03-15T16:48:53.325Z,0.73
2019-03-15T16:51:21.949Z,1.83
2019-03-15T16:53:50.531Z,0.40
2019-03-15T16:56:20.330Z,0.30
2019-03-15T16:58:49.192Z,0.20
2019-03-15T17:01:17.725Z,0.77
2019-03-15T17:03:46.413Z,0.20
2019-03-15T17:06:15.305Z,0.30
2019-03-15T17:08:44.039Z,0.97
2019-03-15T17:11:12.618Z,1.20
2019-03-15T17:13:41.244Z,0.60
2019-03-15T17:16:09.910Z,0.40
2019-03-15T17:18:38.714Z,0.53
2019-03-15T17:21:09.704Z,1.17
2019-03-15T17:23:38.445Z,0.30
2019-03-15T17:26:07.081Z,0.50
2019-03-15T17:28:35.701Z,1.20
2019-03-15T17:31:09.574Z,0.20
2019-03-15T17:33:34.681Z,0.40
2019-03-15T17:36:03.390Z,0.90
2019-03-15T17:38:33.271Z,0.20
2019-03-15T17:41:01.937Z,0.10
2019-03-15T17:43:30.418Z,0.83
2019-03-15T17:45:58.997Z,1.40
2019-03-15T17:48:27.695Z,1.07
2019-03-15T17:50:56.177Z,0.30
2019-03-15T17:53:24.705Z,0.37
2019-03-15T17:55:53.430Z,0.40
2019-03-15T17:58:22.176Z,0.73
2019-03-15T18:00:50.972Z,0.20
2019-03-15T18:03:21.757Z,0.30
2019-03-15T18:05:50.002Z,0.13
2019-03-15T18:08:18.777Z,0.87
2019-03-15T18:10:47.325Z,0.40
2019-03-15T18:13:16.106Z,1.17
2019-03-15T18:15:44.989Z,0.20
2019-03-15T18:18:13.637Z,0.20
2019-03-15T18:20:42.494Z,0.30
2019-03-15T18:23:11.170Z,0.20
2019-03-15T18:25:39.844Z,0.10
2019-03-15T18:28:08.570Z,0.53
2019-03-15T18:30:37.457Z,0.40
2019-03-15T18:33:06.207Z,0.17
2019-03-15T18:35:34.980Z,0.00
2019-03-15T18:38:06.743Z,0.10
2019-03-15T18:40:35.449Z,0.10
2019-03-15T18:43:04.050Z,0.17
2019-03-15T18:45:32.601Z,1.23
2019-03-15T18:48:01.217Z,0.20
2019-03-15T18:50:29.753Z,0.10
2019-03-15T18:52:59.434Z,0.50
2019-03-15T18:55:27.962Z,2.00
2019-03-15T18:57:56.429Z,0.77
2019-03-15T19:00:26.067Z,0.87
2019-03-15T19:02:54.643Z,0.17
2019-03-15T19:05:23.337Z,0.10
2019-03-15T19:07:53.208Z,0.10
2019-03-15T19:10:21.843Z,0.27
2019-03-15T19:12:50.406Z,1.00
2019-03-15T19:15:19.229Z,0.20
2019-03-15T19:17:47.925Z,0.10
2019-03-15T19:20:16.562Z,1.50
2019-03-15T19:22:45.318Z,0.23
2019-03-15T19:25:14.042Z,0.37
2019-03-15T19:27:43.734Z,0.10
2019-03-15T19:30:12.551Z,0.20
2019-03-15T19:32:41.344Z,0.23
2019-03-15T19:35:11.967Z,0.60
2019-03-15T19:37:40.607Z,0.20
2019-03-15T19:40:11.586Z,0.30
2019-03-15T19:42:40.269Z,1.20
2019-03-15T19:45:09.938Z,0.20
2019-03-15T19:47:38.795Z,0.20
2019-03-15T19:50:08.334Z,0.40
2019-03-15T19:52:37.047Z,0.20
2019-03-15T19:55:05.770Z,0.30
2019-03-15T19:57:34.436Z,0.40
2019-03-15T20:00:08.182Z,0.20
2019-03-15T20:02:33.505Z,0.20
2019-03-15T20:05:03.147Z,0.20
2019-03-15T20:07:31.776Z,0.30
2019-03-15T20:10:00.606Z,0.30
2019-03-15T20:12:29.311Z,0.30
2019-03-15T20:14:59.927Z,0.17
2019-03-15T20:17:28.518Z,0.20
2019-03-15T20:19:57.025Z,0.40
2019-03-15T20:22:26.654Z,0.87
2019-03-15T20:24:55.181Z,5.40
2019-03-15T20:27:23.697Z,0.97
2019-03-15T20:29:52.338Z,0.10
2019-03-15T20:32:20.874Z,0.57
2019-03-15T20:34:49.613Z,0.20
2019-03-15T20:37:18.311Z,0.23
2019-03-15T20:39:46.808Z,0.40
2019-03-15T20:42:15.349Z,0.50
2019-03-15T20:44:43.777Z,0.30
2019-03-15T20:47:12.326Z,0.73
2019-03-15T20:49:40.957Z,0.17
2019-03-15T20:52:09.518Z,1.17
2019-03-15T20:54:38.086Z,0.10
2019-03-15T20:57:07.789Z,0.20
2019-03-15T20:59:36.463Z,0.17
2019-03-15T21:02:05.286Z,0.73
2019-03-15T21:04:33.938Z,0.60
2019-03-15T21:07:02.596Z,0.20
2019-03-15T21:09:31.241Z,0.20
2019-03-15T21:12:00.769Z,1.50
2019-03-15T21:14:29.330Z,0.20
2019-03-15T21:16:57.946Z,0.40
2019-03-15T21:19:27.721Z,0.10
2019-03-15T21:21:56.561Z,0.20
2019-03-15T21:24:25.168Z,1.13
2019-03-15T21:26:53.760Z,0.30
2019-03-15T21:29:22.376Z,2.90
2019-03-15T21:31:50.974Z,0.60
2019-03-15T21:34:19.726Z,0.33
2019-03-15T21:36:48.441Z,0.40
2019-03-15T21:39:17.019Z,0.37
2019-03-15T21:41:45.697Z,1.27
2019-03-15T21:44:17.184Z,1.03
2019-03-15T21:46:44.820Z,0.77
2019-03-15T21:49:13.291Z,0.30
2019-03-15T21:51:41.981Z,1.27
2019-03-15T21:54:10.645Z,0.20
2019-03-15T21:56:39.287Z,0.20
2019-03-15T21:59:07.836Z,0.27
2019-03-15T22:01:36.421Z,1.67
2019-03-15T22:04:05.059Z,0.57
2019-03-15T22:06:33.630Z,0.20
2019-03-15T22:09:02.257Z,2.60
2019-03-15T22:11:30.799Z,0.50
2019-03-15T22:13:59.334Z,0.20
2019-03-15T22:16:27.810Z,0.20
2019-03-15T22:18:57.386Z,0.30
2019-03-15T22:21:26.133Z,0.10
2019-03-15T22:23:55.798Z,0.30
2019-03-15T22:26:24.320Z,2.53
2019-03-15T22:28:53.089Z,1.53
2019-03-15T22:31:21.675Z,0.23
2019-03-15T22:33:50.241Z,0.57
2019-03-15T22:36:18.952Z,1.30
2019-03-15T22:38:47.655Z,0.43
2019-03-15T22:41:16.254Z,0.50
2019-03-15T22:43:44.867Z,0.23
2019-03-15T22:46:13.372Z,0.20
2019-03-15T22:48:41.906Z,0.20
2019-03-15T22:51:10.480Z,0.33
2019-03-15T22:53:39.046Z,0.20
2019-03-15T22:56:09.533Z,0.30
2019-03-15T22:58:38.154Z,1.47
2019-03-15T23:01:06.952Z,0.30
2019-03-15T23:03:35.474Z,0.40
2019-03-15T23:06:04.089Z,0.20
2019-03-15T23:08:32.666Z,0.40
2019-03-15T23:11:01.210Z,0.63
2019-03-15T23:13:29.830Z,0.43
2019-03-15T23:15:58.309Z,0.30
2019-03-15T23:18:26.854Z,0.50
2019-03-15T23:20:55.322Z,1.03
2019-03-15T23:23:24.415Z,0.30
2019-03-15T23:25:53.082Z,0.27
2019-03-15T23:28:21.713Z,0.40
2019-03-15T23:30:50.275Z,0.30
2019-03-15T23:33:18.701Z,0.50
2019-03-15T23:35:53.962Z,0.23
2019-03-15T23:38:17.399Z,1.50
2019-03-15T23:40:45.920Z,0.20
2019-03-15T23:43:14.410Z,1.30
2019-03-15T23:45:45.709Z,0.17
2019-03-15T23:48:14.259Z,0.53
2019-03-15T23:50:42.766Z,0.30
2019-03-15T23:53:11.270Z,0.20
2019-03-15T23:55:39.773Z,0.30
2019-03-15T23:58:08.294Z,0.37
